Time;durP1;ratioP1;P1;durP2;ratioP2;P2;SDS_P1;SDS_P2;PMS_P1;PMS_P2;Temp;Humidity;BMP_temperature;BMP_pressure;BME280_temperature;BME280_humidity;BME280_pressure;Samples;Min_cycle;Max_cycle;Signal;HPM_P1;HPM_P2
2022/05/04 00:00:10;;;;;;;18.47;2.83;;;;;;;21.17;56.17;99507.91;7311138;19;158910;-38
2022/05/04 00:02:36;;;;;;;26.00;3.25;;;;;;;21.25;56.40;99523.75;7312106;19;130905;-37
2022/05/04 00:05:02;;;;;;;24.08;3.35;;;;;;;21.25;56.36;99518.53;7312882;19;129427;-39
2022/05/04 00:07:27;;;;;;;30.73;4.47;;;;;;;21.27;55.87;99527.03;7311759;19;129298;-37
2022/05/04 00:09:53;;;;;;;24.03;3.20;;;;;;;21.29;56.70;99519.88;7310548;19;158188;-41
2022/05/04 00:12:18;;;;;;;31.55;3.55;;;;;;;21.25;55.87;99513.28;7309517;19;140531;-39
2022/05/04 00:14:43;;;;;;;20.52;2.72;;;;;;;21.29;56.72;99512.03;7312955;19;129064;-37
2022/05/04 00:17:09;;;;;;;12.30;1.70;;;;;;;21.25;55.94;99517.69;7310106;19;153892;-38
2022/05/04 00:19:34;;;;;;;27.55;3.55;;;;;;;21.25;56.70;99513.28;7311620;19;130362;-37
2022/05/04 00:21:59;;;;;;;20.52;2.75;;;;;;;21.26;56.69;99512.31;7313025;19;135562;-38
2022/05/04 00:24:24;;;;;;;21.25;3.00;;;;;;;21.26;55.83;99508.88;7309404;19;154600;-40
2022/05/04 00:26:50;;;;;;;18.95;2.58;;;;;;;21.28;56.28;99520.84;7312067;19;129146;-38
2022/05/04 00:29:15;;;;;;;21.73;3.07;;;;;;;21.25;56.06;99518.53;7309367;19;158464;-37
2022/05/04 00:31:40;;;;;;;21.87;2.60;;;;;;;21.28;57.11;99520.84;7308983;19;159277;-38
2022/05/04 00:34:05;;;;;;;33.20;3.03;;;;;;;21.26;56.91;99520.16;7311344;19;129300;-38
2022/05/04 00:36:31;;;;;;;8.70;1.73;;;;;;;21.27;56.00;99519.19;7310516;19;154662;-39
2022/05/04 00:38:57;;;;;;;29.73;3.35;;;;;;;21.28;56.67;99517.41;7311922;19;130354;-37
2022/05/04 00:41:22;;;;;;;17.10;2.45;;;;;;;21.28;56.32;99522.63;7312969;19;129736;-39
2022/05/04 00:43:53;;;;;;;17.30;2.65;;;;;;;21.28;56.55;99520.00;7311343;19;129070;-41
2022/05/04 00:46:18;;;;;;;19.70;2.40;;;;;;;21.26;56.51;99520.16;7311128;19;129221;-39
2022/05/04 00:48:44;;;;;;;8.23;1.55;;;;;;;21.28;56.17;99518.22;7308275;19;129468;-38
2022/05/04 00:51:09;;;;;;;32.03;3.67;;;;;;;21.30;57.37;99518.94;7309464;19;158483;-38
2022/05/04 00:53:34;;;;;;;11.73;1.83;;;;;;;21.30;55.97;99516.31;7309228;19;144262;-37
2022/05/04 00:56:00;;;;;;;21.90;2.88;;;;;;;21.29;56.25;99519.03;7310363;19;128871;-38
2022/05/04 01:01:09;;;;;;;16.67;2.28;;;;;;;21.28;56.70;99518.22;7310374;19;129389;-40
2022/05/04 01:03:37;;;;;;;24.75;2.65;;;;;;;21.29;56.10;99514.66;7308976;19;128946;-37
2022/05/04 01:06:02;;;;;;;18.45;2.53;;;;;;;21.28;56.27;99520.84;7309343;19;128943;-38
2022/05/04 01:08:28;;;;;;;35.60;4.03;;;;;;;21.30;56.29;99520.72;7309709;19;129533;-37
2022/05/04 01:10:53;;;;;;;38.60;4.75;;;;;;;21.29;55.80;99514.66;7310092;19;135990;-38
2022/05/04 01:13:20;;;;;;;15.93;2.08;;;;;;;21.21;56.38;99498.84;7307571;19;154305;-39
2022/05/04 01:15:45;;;;;;;;;;;;;;;21.38;57.04;99513.81;7310302;19;128848;-39
2022/05/04 01:18:11;;;;;;;29.58;3.67;;;;;;;21.30;56.08;99516.31;7311132;19;130184;-39
2022/05/04 01:20:36;;;;;;;18.17;2.33;;;;;;;21.30;56.42;99516.31;7308793;19;158514;-38
2022/05/04 01:23:01;;;;;;;19.27;2.83;;;;;;;21.24;56.69;99501.16;7308245;19;154480;-40
2022/05/04 01:25:26;;;;;;;43.40;5.50;;;;;;;21.31;56.61;99517.13;7307661;19;153508;-38
2022/05/04 01:27:52;;;;;;;19.27;3.03;;;;;;;21.32;57.17;99513.56;7309223;19;154272;-40
2022/05/04 01:30:17;;;;;;;20.08;2.67;;;;;;;21.31;56.45;99511.88;7308945;19;130393;-37
2022/05/04 01:32:42;;;;;;;11.18;1.92;;;;;;;21.28;56.48;99517.41;7308616;19;129516;-37
2022/05/04 01:35:09;;;;;;;20.73;2.37;;;;;;;21.31;56.59;99517.13;7308485;19;154358;-38
2022/05/04 01:37:34;;;;;;;38.03;4.13;;;;;;;21.31;56.39;99523.19;7310835;19;130683;-39
2022/05/04 01:39:59;;;;;;;27.83;3.53;;;;;;;21.30;56.54;99515.47;7309631;19;129606;-39
2022/05/04 01:42:25;;;;;;;26.85;3.47;;;;;;;21.29;56.29;99519.88;7310771;19;129051;-39
2022/05/04 01:44:50;;;;;;;8.10;1.48;;;;;;;21.30;55.86;99529.38;7308774;19;154650;-39
2022/05/04 01:47:15;;;;;;;30.88;3.45;;;;;;;21.30;56.61;99529.38;7308182;19;148128;-39
2022/05/04 01:49:41;;;;;;;27.33;2.93;;;;;;;21.29;56.90;99529.50;7308371;19;158022;-40
2022/05/04 01:52:06;;;;;;;18.23;2.70;;;;;;;21.31;56.82;99522.34;7308390;19;129674;-39
2022/05/04 01:54:32;;;;;;;23.75;3.17;;;;;;;21.31;56.80;99531.03;7309889;19;128814;-39
2022/05/04 01:56:57;;;;;;;24.08;3.13;;;;;;;21.20;56.46;99505.03;7309401;19;129243;-39
2022/05/04 01:59:22;;;;;;;23.30;3.10;;;;;;;21.31;57.23;99517.94;7308329;19;158751;-39
2022/05/04 02:01:48;;;;;;;27.98;3.00;;;;;;;21.25;57.16;99513.28;7315669;19;130652;-37
2022/05/04 02:04:14;;;;;;;15.73;2.10;;;;;;;21.32;57.27;99524.00;7315124;19;129237;-38
2022/05/04 02:06:40;;;;;;;14.65;2.13;;;;;;;21.29;56.65;99514.66;7316401;19;129422;-39
2022/05/04 02:09:06;;;;;;;17.75;2.42;;;;;;;21.31;56.79;99517.13;7316023;19;129272;-38
2022/05/04 02:11:32;;;;;;;38.53;4.65;;;;;;;21.29;56.02;99519.88;7315603;19;130439;-39
2022/05/04 02:14:01;;;;;;;20.25;2.72;;;;;;;21.30;56.86;99512.88;7314634;19;129032;-38
2022/05/04 02:16:28;;;;;;;20.10;2.55;;;;;;;21.32;57.31;99519.59;7315855;19;129182;-39
2022/05/04 02:18:53;;;;;;;12.30;2.00;;;;;;;21.26;57.00;99504.47;7315685;19;130644;-39
2022/05/04 02:21:19;;;;;;;26.63;3.10;;;;;;;21.30;56.04;99516.31;7314027;19;155735;-39
2022/05/04 02:23:44;;;;;;;35.93;4.27;;;;;;;21.31;56.48;99512.72;7312983;19;154065;-38
2022/05/04 02:26:09;;;;;;;11.50;1.80;;;;;;;21.31;56.22;99502.25;7313235;19;158300;-40
2022/05/04 02:28:34;;;;;;;20.80;2.67;;;;;;;21.32;56.97;99503.09;7314691;19;129642;-39
2022/05/04 02:31:00;;;;;;;15.95;2.35;;;;;;;21.33;56.50;99505.56;7313001;19;154531;-39
2022/05/04 02:33:25;;;;;;;18.25;2.67;;;;;;;21.32;56.60;99513.56;7313878;19;130258;-39
2022/05/04 02:38:35;;;;;;;26.88;3.47;;;;;;;21.32;56.81;99516.16;7315148;19;130338;-38
2022/05/04 02:41:00;;;;;;;23.30;2.88;;;;;;;21.19;56.53;99498.13;7313989;19;128820;-39
2022/05/04 02:43:26;;;;;;;32.85;3.40;;;;;;;21.31;57.04;99517.94;7312158;19;155008;-39
2022/05/04 02:45:51;;;;;;;18.15;2.63;;;;;;;21.29;56.30;99519.88;7314533;19;130268;-39
2022/05/04 02:48:17;;;;;;;15.88;1.92;;;;;;;21.33;56.84;99521.25;7315416;19;129262;-39
2022/05/04 02:50:42;;;;;;;16.80;2.13;;;;;;;21.32;56.70;99516.16;7316359;19;131261;-39
2022/05/04 02:53:07;;;;;;;25.35;3.08;;;;;;;21.32;56.94;99522.19;7310938;19;153908;-38
2022/05/04 02:55:33;;;;;;;27.30;3.75;;;;;;;21.35;56.76;99519.34;7313748;19;159457;-39
2022/05/04 02:57:58;;;;;;;36.55;4.43;;;;;;;21.31;57.05;99523.19;7314797;19;130364;-39
2022/05/04 03:00:25;;;;;;;34.58;3.95;;;;;;;21.34;56.57;99522.06;7314394;19;128861;-38
2022/05/04 03:02:50;;;;;;;21.00;2.75;;;;;;;21.29;55.70;99524.25;7314902;19;130096;-40
2022/05/04 03:05:16;;;;;;;29.45;3.05;;;;;;;21.31;56.27;99528.41;7315650;19;130588;-39
2022/05/04 03:07:42;;;;;;;15.98;2.33;;;;;;;21.19;56.72;99513.81;7314577;19;129801;-39
2022/05/04 03:10:08;;;;;;;20.95;2.83;;;;;;;21.31;56.70;99527.56;7314780;19;130022;-40
2022/05/04 03:12:33;;;;;;;18.87;2.50;;;;;;;21.32;56.87;99530.03;7310569;19;131411;-39
2022/05/04 03:14:59;;;;;;;17.50;2.45;;;;;;;21.32;57.13;99527.44;7313911;19;156551;-40
2022/05/04 03:17:25;;;;;;;13.05;2.53;;;;;;;21.27;56.60;99527.03;7311985;19;149864;-40
2022/05/04 03:19:52;;;;;;;27.30;3.17;;;;;;;21.30;56.68;99532.00;7315543;19;129040;-39
2022/05/04 03:22:17;;;;;;;26.25;3.25;;;;;;;21.31;56.83;99528.41;7313970;19;131559;-38
2022/05/04 03:24:42;;;;;;;14.48;2.03;;;;;;;21.31;56.13;99528.41;7313642;19;130145;-40
2022/05/04 03:27:08;;;;;;;19.30;2.67;;;;;;;21.21;56.06;99517.13;7313328;19;158673;-39
2022/05/04 03:29:34;;;;;;;26.70;3.33;;;;;;;21.32;56.20;99524.81;7314240;19;129489;-39
2022/05/04 03:31:59;;;;;;;20.97;2.80;;;;;;;21.32;56.30;99532.66;7312852;19;129360;-40
2022/05/04 03:34:25;;;;;;;20.42;2.83;;;;;;;21.29;56.25;99532.94;7309311;19;157434;-38
2022/05/04 03:36:51;;;;;;;20.93;2.67;;;;;;;21.31;56.26;99538.88;7313870;19;130352;-39
2022/05/04 03:39:16;;;;;;;26.38;3.53;;;;;;;21.31;56.62;99532.81;7313602;19;129600;-40
2022/05/04 03:41:42;;;;;;;13.95;1.77;;;;;;;21.33;57.22;99539.56;7311610;19;153997;-40
2022/05/04 03:44:07;;;;;;;16.13;1.95;;;;;;;21.31;56.51;99544.09;7311927;19;129645;-38
2022/05/04 03:46:41;;;;;;;9.65;1.83;;;;;;;21.31;56.80;99536.25;7309725;19;158587;-38
2022/05/04 03:49:08;;;;;;;27.92;3.42;;;;;;;21.28;56.57;99544.38;7311277;19;130846;-39
2022/05/04 03:51:33;;;;;;;32.53;3.60;;;;;;;21.29;55.70;99540.78;7311813;19;131028;-39
2022/05/04 03:53:58;;;;;;;27.80;3.55;;;;;;;21.32;56.47;99545.75;7310931;19;129432;-40
2022/05/04 03:56:23;;;;;;;24.58;3.30;;;;;;;21.33;56.84;99542.19;7307169;19;158596;-39
2022/05/04 03:58:49;;;;;;;14.48;2.05;;;;;;;21.25;56.40;99531.59;7311408;19;155069;-38
2022/05/04 04:01:14;;;;;;;11.95;1.80;;;;;;;21.33;57.04;99541.34;7311030;19;153406;-38
2022/05/04 04:03:40;;;;;;;24.25;2.95;;;;;;;21.34;57.25;99543.81;7310482;19;130446;-39
2022/05/04 04:06:05;;;;;;;21.38;2.55;;;;;;;21.32;56.98;99545.75;7311757;19;129222;-38
2022/05/04 04:08:31;;;;;;;23.83;3.13;;;;;;;21.31;57.23;99549.31;7311363;19;130327;-39
2022/05/04 04:10:57;;;;;;;31.58;3.75;;;;;;;21.32;56.50;99540.50;7310092;19;129058;-40
2022/05/04 04:13:22;;;;;;;29.42;3.13;;;;;;;21.34;56.56;99545.59;7307338;19;130312;-39
2022/05/04 04:15:51;;;;;;;20.42;2.42;;;;;;;21.33;56.45;99546.56;7311894;19;130556;-37
2022/05/04 04:18:17;;;;;;;22.90;2.53;;;;;;;21.29;56.08;99543.41;7310848;19;130044;-39
2022/05/04 04:23:26;;;;;;;26.58;3.08;;;;;;;21.31;56.21;99549.31;7309694;19;130205;-38
2022/05/04 04:25:51;;;;;;;34.40;3.95;;;;;;;21.34;57.13;99549.03;7306532;19;158834;-39
2022/05/04 04:28:17;;;;;;;40.13;4.07;;;;;;;21.35;56.65;99553.34;7309920;19;129355;-38
2022/05/04 04:30:42;;;;;;;7.13;1.35;;;;;;;21.31;56.73;99549.31;7309299;19;137655;-38
2022/05/04 04:33:08;;;;;;;17.33;2.35;;;;;;;21.32;56.85;99556.19;7308272;19;158047;-39
2022/05/04 04:35:33;;;;;;;39.45;4.68;;;;;;;21.33;56.73;99555.25;7309440;19;130873;-40
2022/05/04 04:37:59;;;;;;;28.15;3.55;;;;;;;21.31;56.08;99559.78;7310452;19;129154;-39
2022/05/04 04:40:25;;;;;;;19.70;2.72;;;;;;;21.32;56.08;99560.63;7310045;19;129167;-40
2022/05/04 04:42:50;;;;;;;25.33;3.05;;;;;;;21.33;57.34;99563.09;7310876;19;129700;-38
2022/05/04 04:45:17;;;;;;;24.55;2.83;;;;;;;21.31;57.13;99565.03;7309299;19;139829;-42
2022/05/04 04:47:46;;;;;;;35.30;4.43;;;;;;;21.31;57.00;99565.03;7310333;19;129069;-41
2022/05/04 04:50:11;;;;;;;23.42;2.65;;;;;;;21.23;56.78;99546.59;7310855;19;128938;-39
2022/05/04 04:52:36;;;;;;;12.93;1.70;;;;;;;21.33;56.60;99568.31;7308029;19;159077;-39
2022/05/04 04:55:01;;;;;;;26.48;3.45;;;;;;;21.35;57.20;99566.41;7309823;19;158505;-38
2022/05/04 04:57:27;;;;;;;22.13;2.65;;;;;;;21.36;57.00;99568.03;7309745;19;154966;-37
2022/05/04 04:59:52;;;;;;;8.07;1.63;;;;;;;21.23;56.81;99551.81;7310020;19;153933;-38
2022/05/04 05:02:17;;;;;;;16.58;2.33;;;;;;;21.31;56.85;99567.63;7309112;19;151441;-42
2022/05/04 05:04:43;;;;;;;16.30;2.10;;;;;;;21.34;56.05;99576.97;7310611;19;151411;-37
2022/05/04 05:07:08;;;;;;;18.02;2.60;;;;;;;21.30;56.11;99563.38;7308787;19;154751;-37
2022/05/04 05:09:33;;;;;;;26.57;3.67;;;;;;;21.39;56.73;99567.75;7309353;19;154031;-37
2022/05/04 05:11:58;;;;;;;19.00;3.20;;;;;;;21.31;56.31;99565.03;7308426;19;158490;-37
2022/05/04 05:17:08;;;;;;;19.50;3.05;;;;;;;21.32;56.66;99582.34;7310889;19;128953;-38
2022/05/04 05:19:33;;;;;;;29.73;4.43;;;;;;;21.31;56.56;99580.72;7307826;19;154237;-37
2022/05/04 05:21:58;;;;;;;22.08;3.42;;;;;;;21.31;56.23;99569.41;7308501;19;159720;-38
2022/05/04 05:24:24;;;;;;;23.35;3.45;;;;;;;21.32;56.52;99574.50;7307391;19;129361;-40
2022/05/04 05:26:49;;;;;;;64.53;8.27;;;;;;;21.33;56.11;99568.31;7288171;19;155182;-40
2022/05/04 05:29:14;;;;;;;27.58;3.63;;;;;;;21.32;55.76;99571.09;7293967;19;152903;-38
2022/05/04 05:31:39;;;;;;;22.50;2.87;;;;;;;21.35;55.97;99576.88;7306446;19;158546;-39
2022/05/04 05:34:05;;;;;;;16.70;2.33;;;;;;;21.35;56.07;99571.63;7306112;19;159086;-38
2022/05/04 05:36:30;;;;;;;21.20;3.30;;;;;;;21.34;56.70;99574.34;7314920;19;154542;-37
2022/05/04 05:38:55;;;;;;;13.68;2.35;;;;;;;21.33;56.01;99586.63;7315274;19;134273;-40
2022/05/04 05:41:23;;;;;;;32.30;4.18;;;;;;;21.24;56.42;99574.38;7309690;19;129134;-40
2022/05/04 05:43:48;;;;;;;28.27;3.50;;;;;;;21.31;56.86;99585.09;7310180;19;130978;-39
2022/05/04 05:46:14;;;;;;;19.55;2.53;;;;;;;21.30;56.35;99591.31;7315543;19;129527;-37
2022/05/04 05:48:39;;;;;;;12.47;2.03;;;;;;;21.29;56.76;99587.84;7315450;19;141743;-41
2022/05/04 05:51:05;;;;;;;22.00;2.97;;;;;;;21.31;56.85;99591.16;7314061;19;159354;-39
2022/05/04 05:53:31;;;;;;;26.20;3.80;;;;;;;21.33;56.11;99584.03;7312371;19;129766;-37
2022/05/04 05:55:57;;;;;;;25.17;3.30;;;;;;;21.34;56.22;99590.06;7314243;19;129080;-37
2022/05/04 05:58:22;;;;;;;29.33;4.00;;;;;;;21.33;56.02;99588.41;7314045;19;129177;-37
2022/05/04 06:00:47;;;;;;;19.73;2.85;;;;;;;21.34;56.51;99579.59;7315234;19;129821;-40
2022/05/04 06:03:14;;;;;;;18.52;2.50;;;;;;;21.33;56.34;99585.78;7314530;19;129337;-37
2022/05/04 06:05:39;;;;;;;;;;;;;;;21.42;56.69;99583.16;7314313;19;128909;-37
2022/05/04 06:08:05;;;;;;;26.97;3.57;;;;;;;21.32;55.99;99581.53;7313645;19;154036;-39
2022/05/04 06:10:30;;;;;;;22.90;3.38;;;;;;;21.34;55.94;99584.81;7314377;19;129329;-37
2022/05/04 06:12:55;;;;;;;18.90;2.72;;;;;;;21.36;57.16;99594.19;7312942;19;159064;-42
2022/05/04 06:15:21;;;;;;;41.65;5.60;;;;;;;21.33;56.46;99584.03;7310248;19;130577;-36
2022/05/04 06:17:47;;;;;;;22.50;3.40;;;;;;;21.33;56.10;99591.03;7313603;19;154005;-38
2022/05/04 06:20:12;;;;;;;37.17;3.90;;;;;;;21.32;56.58;99582.34;7313116;19;130095;-38
2022/05/04 06:22:38;;;;;;;38.83;4.55;;;;;;;21.35;56.83;99587.31;7313387;19;129389;-40
2022/05/04 06:25:04;;;;;;;29.35;3.78;;;;;;;21.32;55.89;99582.34;7314622;19;129548;-39
2022/05/04 06:27:30;;;;;;;30.63;3.70;;;;;;;21.31;56.09;99579.88;7313673;19;129410;-41
2022/05/04 06:35:39;;;;;;;23.92;3.38;;;;;;;21.28;56.30;99581.00;7310927;19;129018;-37
2022/05/04 06:38:05;;;;;;;18.45;2.75;;;;;;;21.30;56.06;99584.31;7309539;19;154791;-38
2022/05/04 06:40:31;;;;;;;23.10;3.55;;;;;;;21.32;56.41;99587.56;7312480;19;129338;-39
2022/05/04 06:42:57;;;;;;;23.08;3.17;;;;;;;21.33;56.35;99581.41;7310148;19;157148;-37
2022/05/04 06:45:23;;;;;;;36.78;4.68;;;;;;;21.32;55.96;99587.56;7310432;19;129718;-40
2022/05/04 06:47:48;;;;;;;21.30;2.83;;;;;;;21.34;56.30;99590.88;7313536;19;128994;-39
2022/05/04 06:50:13;;;;;;;21.88;2.70;;;;;;;21.33;56.29;99588.41;7312996;19;158735;-37
2022/05/04 06:52:39;;;;;;;21.35;3.00;;;;;;;21.33;55.79;99598.88;7312740;19;131491;-41
2022/05/04 06:55:05;;;;;;;15.68;2.63;;;;;;;21.31;56.37;99601.63;7312802;19;129040;-38
2022/05/04 06:57:31;;;;;;;45.08;5.25;;;;;;;21.30;56.73;99602.59;7310244;19;129347;-38
2022/05/04 06:59:59;;;;;;;22.65;3.08;;;;;;;21.36;56.85;99596.81;7312693;19;129055;-38
2022/05/04 07:02:24;;;;;;;24.95;3.25;;;;;;;21.32;56.46;99592.00;7313459;19;130090;-38
2022/05/04 07:04:50;;;;;;;24.60;3.40;;;;;;;21.26;57.00;99589.91;7314458;19;129255;-38
2022/05/04 07:07:15;;;;;;;24.15;2.95;;;;;;;21.32;56.15;99608.50;7308222;19;154310;-40
2022/05/04 07:09:40;;;;;;;11.55;1.75;;;;;;;21.32;56.46;99608.50;7312809;19;159168;-38
2022/05/04 07:12:06;;;;;;;22.48;2.83;;;;;;;21.33;56.59;99594.47;7308944;19;158389;-39
2022/05/04 07:14:32;;;;;;;26.43;3.43;;;;;;;21.34;56.27;99598.72;7312920;19;129313;-38
2022/05/04 07:16:57;;;;;;;28.02;3.90;;;;;;;21.35;56.86;99595.19;7311926;19;129191;-38
2022/05/04 07:19:22;;;;;;;16.58;2.50;;;;;;;21.33;56.50;99594.47;7311574;19;158351;-39
2022/05/04 07:21:47;;;;;;;18.47;2.70;;;;;;;21.33;56.93;99588.41;7312602;19;158524;-41
2022/05/04 07:24:12;;;;;;;16.13;2.47;;;;;;;21.22;55.90;99576.28;7311474;19;132042;-38
2022/05/04 07:26:40;;;;;;;16.40;2.30;;;;;;;21.32;56.77;99587.56;7312534;19;131089;-39
2022/05/04 07:29:05;;;;;;;28.73;3.75;;;;;;;21.32;56.19;99595.41;7311804;19;129255;-38
2022/05/04 07:31:30;;;;;;;20.27;3.05;;;;;;;21.25;56.22;99581.28;7311522;19;151887;-38
2022/05/04 07:33:55;;;;;;;26.85;3.60;;;;;;;21.32;56.83;99581.53;7309265;19;155102;-38
2022/05/04 07:36:21;;;;;;;26.33;3.58;;;;;;;21.32;56.43;99592.00;7309974;19;154424;-37
2022/05/04 07:38:46;;;;;;;8.68;1.60;;;;;;;21.31;56.93;99578.09;7312717;19;130162;-42
2022/05/04 07:43:55;;;;;;;28.88;3.63;;;;;;;21.31;56.70;99579.88;7311346;19;128959;-37
2022/05/04 07:46:20;;;;;;;29.70;3.78;;;;;;;21.31;56.01;99575.47;7309298;19;154515;-40
2022/05/04 07:48:46;;;;;;;21.55;3.00;;;;;;;21.30;56.46;99580.84;7313012;19;129340;-38
2022/05/04 07:51:11;;;;;;;17.40;2.50;;;;;;;21.31;56.47;99580.72;7310820;19;158563;-38
2022/05/04 07:53:37;;;;;;;18.40;2.58;;;;;;;21.31;56.83;99580.72;7308951;19;129951;-40
2022/05/04 07:56:03;;;;;;;30.35;3.97;;;;;;;21.32;55.92;99587.56;7310688;19;128838;-37
2022/05/04 07:58:28;;;;;;;27.60;3.35;;;;;;;21.34;57.00;99580.44;7310222;19;129053;-37
2022/05/04 08:06:21;;;;;;;47.70;5.55;;;;;;;21.22;56.28;99576.28;7307144;19;128945;-42
2022/05/04 08:08:46;;;;;;;17.35;2.30;;;;;;;21.28;56.54;99581.00;7309761;19;158794;-37
2022/05/04 08:11:11;;;;;;;22.25;2.85;;;;;;;21.30;56.82;99579.06;7311398;19;157609;-39
2022/05/04 08:13:37;;;;;;;14.87;2.27;;;;;;;21.22;56.70;99571.06;7306138;19;154895;-36
2022/05/04 08:16:02;;;;;;;29.07;3.60;;;;;;;21.30;57.20;99578.22;7309574;19;143191;-40
2022/05/04 08:18:28;;;;;;;16.25;2.70;;;;;;;21.30;57.03;99581.69;7310542;19;129246;-40
2022/05/04 08:20:53;;;;;;;17.83;2.45;;;;;;;21.29;56.38;99579.19;7312714;19;129170;-39
2022/05/04 08:23:18;;;;;;;20.40;2.70;;;;;;;21.20;56.14;99567.78;7309792;19;144720;-40
2022/05/04 08:25:46;;;;;;;17.70;2.37;;;;;;;21.31;56.69;99580.72;7310481;19;154208;-38
2022/05/04 08:28:14;;;;;;;14.23;2.10;;;;;;;21.30;57.08;99573.84;7310643;19;129067;-37
2022/05/04 08:30:39;;;;;;;18.90;2.75;;;;;;;21.28;56.36;99580.16;7310863;19;129622;-37
2022/05/04 08:33:05;;;;;;;71.15;8.63;;;;;;;21.30;56.78;99579.06;7308211;19;129051;-41
2022/05/04 08:35:30;;;;;;;56.83;6.80;;;;;;;21.22;56.73;99568.44;7309361;19;129505;-38
2022/05/04 08:37:55;;;;;;;54.97;6.88;;;;;;;21.31;56.30;99578.09;7309039;19;131777;-44
2022/05/04 08:40:21;;;;;;;24.25;3.35;;;;;;;21.31;55.87;99585.94;7308797;19;158669;-39
2022/05/04 08:42:46;;;;;;;11.57;1.92;;;;;;;21.31;56.19;99579.88;7303939;19;150335;-40
2022/05/04 08:45:14;;;;;;;23.47;3.00;;;;;;;21.31;56.83;99580.72;7307765;19;154232;-39
2022/05/04 08:47:41;;;;;;;18.00;2.50;;;;;;;21.31;57.08;99580.72;7308631;19;129515;-38
2022/05/04 08:50:17;;;;;;;;;;;;;;;21.39;56.99;99567.75;7311840;19;129216;-37
2022/05/04 08:52:51;;;;;;;18.85;2.65;;;;;;;21.30;56.53;99573.84;7309323;19;129510;-37
2022/05/04 08:55:17;;;;;;;55.65;6.03;;;;;;;21.30;56.55;99573.84;7305967;19;129578;-41
2022/05/04 08:57:42;;;;;;;10.00;1.80;;;;;;;21.31;56.62;99575.47;7309618;19;129365;-36
2022/05/04 09:00:10;;;;;;;23.55;3.05;;;;;;;21.30;56.19;99579.06;7307451;19;158477;-37
2022/05/04 09:02:35;;;;;;;31.23;3.70;;;;;;;21.28;56.65;99578.38;7306856;19;128884;-41
2022/05/04 09:05:23;;;;;;;26.90;3.25;;;;;;;21.33;57.29;99572.72;7309467;19;129220;-39
2022/05/04 09:07:50;;;;;;;24.73;2.92;;;;;;;21.29;56.33;99572.16;7309798;19;130909;-40
2022/05/04 09:10:21;;;;;;;17.25;2.20;;;;;;;21.30;56.53;99568.59;7313274;19;129253;-41
2022/05/04 09:12:48;;;;;;;19.60;2.50;;;;;;;21.30;56.16;99560.75;7317195;19;128843;-38
2022/05/04 09:15:16;;;;;;;;;;;;;;;21.43;56.74;99558.69;7318689;19;129707;-38
2022/05/04 09:17:42;;;;;;;15.27;2.35;;;;;;;21.25;56.41;99555.13;7316383;19;132455;-37
2022/05/04 09:22:52;;;;;;;22.58;2.97;;;;;;;21.29;56.92;99559.09;7317356;19;128934;-39
2022/05/04 09:25:18;;;;;;;23.95;3.15;;;;;;;21.27;56.18;99558.41;7317312;19;129406;-40
2022/05/04 09:27:44;;;;;;;15.57;2.20;;;;;;;21.27;57.10;99558.41;7316111;19;129150;-36
2022/05/04 09:30:09;;;;;;;17.60;2.30;;;;;;;21.31;57.08;99558.94;7317258;19;129462;-38
2022/05/04 09:32:41;;;;;;;27.80;3.40;;;;;;;21.30;56.47;99557.31;7316102;19;128925;-38
2022/05/04 09:35:14;;;;;;;26.17;3.38;;;;;;;21.29;57.38;99564.31;7316574;19;128995;-38
2022/05/04 09:45:55;;;;;;;16.23;2.30;;;;;;;21.29;57.12;99545.19;7317254;19;129087;-38
2022/05/04 09:48:30;;;;;;;13.57;2.00;;;;;;;21.30;57.13;99532.00;7317107;19;130812;-36
2022/05/04 09:51:07;;;;;;;17.98;2.30;;;;;;;21.31;57.47;99538.88;7316028;19;129183;-37
2022/05/04 09:53:34;;;;;;;26.45;3.25;;;;;;;21.30;57.31;99549.47;7314691;19;129269;-40
2022/05/04 09:56:01;;;;;;;35.08;4.00;;;;;;;21.28;56.21;99548.78;7315204;19;129279;-37
2022/05/04 09:58:27;;;;;;;27.50;3.35;;;;;;;21.28;56.64;99547.00;7315732;19;129270;-38
2022/05/04 10:00:53;;;;;;;19.13;2.63;;;;;;;21.27;56.69;99541.91;7316220;19;129318;-36
2022/05/04 10:03:19;;;;;;;13.67;1.93;;;;;;;21.26;56.83;99538.47;7315474;19;129518;-39
2022/05/04 10:05:45;;;;;;;17.38;2.45;;;;;;;21.28;56.48;99544.38;7316856;19;128964;-37
2022/05/04 10:08:11;;;;;;;21.23;2.55;;;;;;;21.26;56.71;99550.69;7315900;19;129194;-40
2022/05/04 10:10:36;;;;;;;17.65;2.42;;;;;;;21.24;56.66;99544.78;7315951;19;129092;-38
2022/05/04 10:13:02;;;;;;;21.10;2.95;;;;;;;21.27;56.45;99541.91;7314580;19;155412;-38
2022/05/04 10:15:30;;;;;;;41.60;5.38;;;;;;;21.25;56.93;99534.22;7315813;19;129194;-39
2022/05/04 10:18:20;;;;;;;20.77;2.90;;;;;;;21.31;56.91;99531.03;7316110;19;129976;-41
2022/05/04 10:20:52;;;;;;;17.27;2.22;;;;;;;21.23;57.03;99527.44;7315980;19;129748;-41
2022/05/04 10:23:31;;;;;;;16.45;2.20;;;;;;;21.28;57.15;99530.47;7315526;19;129392;-41
2022/05/04 10:25:57;;;;;;;16.00;2.15;;;;;;;21.23;56.01;99520.44;7315773;19;128860;-37
2022/05/04 10:28:23;;;;;;;18.48;2.65;;;;;;;21.26;56.43;99525.38;7315172;19;129180;-38
2022/05/04 10:30:53;;;;;;;21.07;2.50;;;;;;;21.26;56.96;99520.16;7315962;19;129206;-38
2022/05/04 10:33:23;;;;;;;10.05;1.70;;;;;;;21.28;57.38;99523.47;7313704;19;129941;-38
2022/05/04 10:35:49;;;;;;;19.23;2.33;;;;;;;21.27;56.63;99527.03;7315292;19;129555;-38
2022/05/04 10:38:24;;;;;;;10.27;1.55;;;;;;;21.29;56.95;99514.66;7315402;19;130097;-38
2022/05/04 10:40:54;;;;;;;15.40;2.10;;;;;;;21.26;56.64;99514.94;7315506;19;129214;-38
2022/05/04 10:43:36;;;;;;;18.27;2.25;;;;;;;21.27;57.44;99506.09;7313577;19;128776;-45
2022/05/04 10:46:20;;;;;;;21.58;2.88;;;;;;;21.23;57.32;99504.75;7314496;19;129159;-42
2022/05/04 10:48:55;;;;;;;15.85;2.00;;;;;;;21.27;57.32;99508.72;7315989;19;130207;-37
2022/05/04 10:51:22;;;;;;;24.30;3.10;;;;;;;21.23;56.88;99509.97;7312913;19;158329;-38
2022/05/04 10:54:10;;;;;;;18.60;2.15;;;;;;;21.27;57.94;99515.75;7313750;19;129049;-40
2022/05/04 10:56:36;;;;;;;19.20;2.47;;;;;;;21.25;56.84;99508.06;7314575;19;129435;-37
2022/05/04 10:59:02;;;;;;;20.40;2.72;;;;;;;21.26;57.00;99501.84;7314761;19;129092;-37
2022/05/04 11:01:36;;;;;;;30.43;3.90;;;;;;;21.27;57.33;99506.09;7314030;19;129199;-37
2022/05/04 11:04:11;;;;;;;16.63;2.35;;;;;;;21.25;57.50;99500.22;7312851;19;129140;-38
2022/05/04 11:06:50;;;;;;;26.60;3.22;;;;;;;21.26;56.32;99503.63;7312372;19;153842;-37
2022/05/04 11:09:17;;;;;;;8.15;1.40;;;;;;;21.24;57.04;99495.94;7313923;19;129507;-38
2022/05/04 11:11:45;;;;;;;19.40;2.55;;;;;;;21.23;56.40;99501.31;7313521;19;129883;-37
2022/05/04 11:14:13;;;;;;;14.70;1.77;;;;;;;21.23;57.14;99504.75;7311861;19;128908;-37
2022/05/04 11:16:39;;;;;;;19.23;2.67;;;;;;;21.22;57.19;99502.28;7313098;19;128937;-37
2022/05/04 11:19:06;;;;;;;19.23;2.47;;;;;;;21.27;57.07;99505.31;7313315;19;129132;-38
2022/05/04 11:21:32;;;;;;;24.00;3.05;;;;;;;21.16;56.87;99493.19;7314431;19;129414;-39
2022/05/04 11:24:00;;;;;;;9.35;1.75;;;;;;;21.24;57.61;99495.94;7312836;19;129157;-39
2022/05/04 11:26:33;;;;;;;19.15;2.63;;;;;;;21.23;56.76;99494.28;7313032;19;128937;-40
2022/05/04 11:28:58;;;;;;;25.85;3.05;;;;;;;21.17;57.32;99476.53;7312854;19;131743;-37
2022/05/04 11:31:23;;;;;;;22.00;2.83;;;;;;;21.26;57.19;99494.00;7311956;19;157629;-38
2022/05/04 11:33:49;;;;;;;22.25;2.70;;;;;;;21.26;56.06;99483.56;7309990;19;154494;-42
2022/05/04 11:36:21;;;;;;;9.15;1.60;;;;;;;21.27;57.53;99503.50;7313567;19;129199;-38
2022/05/04 11:38:48;;;;;;;16.85;2.00;;;;;;;21.23;56.38;99489.06;7313544;19;129510;-39
2022/05/04 11:41:14;;;;;;;14.82;1.98;;;;;;;21.22;56.88;99482.16;7313333;19;129638;-38
2022/05/04 11:43:40;;;;;;;16.80;2.10;;;;;;;21.24;56.66;99488.09;7312485;19;129247;-36
2022/05/04 11:46:09;;;;;;;16.17;2.30;;;;;;;21.21;57.04;99485.75;7312192;19;129216;-37
2022/05/04 11:48:42;;;;;;;26.80;3.30;;;;;;;21.23;56.89;99489.06;7312686;19;129289;-41
2022/05/04 11:51:09;;;;;;;16.92;2.13;;;;;;;21.22;56.85;99482.16;7313310;19;129231;-38